Time;durP1;ratioP1;P1;durP2;ratioP2;P2;SDS_P1;SDS_P2;PMS_P1;PMS_P2;Temp;Humidity;BMP_temperature;BMP_pressure;BME280_temperature;BME280_humidity;BME280_pressure;Samples;Min_cycle;Max_cycle;Signal;HPM_P1;HPM_P2
2021/11/30 00:00:00;;;;;;;22.23;6.30;;;5.40;99.90;;;;;;4170346;28;20029;-63
2021/11/30 00:02:01;;;;;;;14.35;5.47;;;5.40;99.90;;;;;;4169777;28;20034;-63
2021/11/30 00:04:02;;;;;;;17.55;5.95;;;5.40;99.90;;;;;;4177519;28;20403;-63
2021/11/30 00:06:04;;;;;;;20.75;6.70;;;5.40;99.90;;;;;;4169812;28;20028;-63
2021/11/30 00:08:05;;;;;;;21.10;5.93;;;5.40;99.90;;;;;;4168315;28;20033;-63
2021/11/30 00:12:11;;;;;;;17.40;5.93;;;5.40;99.90;;;;;;4170446;28;20495;-63
2021/11/30 00:14:11;;;;;;;18.00;5.63;;;5.30;99.90;;;;;;4175721;28;20033;-63
2021/11/30 00:16:13;;;;;;;16.83;5.78;;;5.30;99.90;;;;;;4174730;28;20033;-63
2021/11/30 00:18:16;;;;;;;15.77;5.85;;;5.30;99.90;;;;;;4176470;28;20088;-63
2021/11/30 00:20:16;;;;;;;25.42;6.38;;;5.30;99.90;;;;;;4175227;28;20040;-63
2021/11/30 00:22:20;;;;;;;15.88;5.75;;;5.30;99.90;;;;;;4172010;28;20399;-63
2021/11/30 00:24:23;;;;;;;14.73;5.68;;;5.30;99.90;;;;;;4171142;28;20492;-63
2021/11/30 00:26:24;;;;;;;14.40;5.53;;;5.30;99.90;;;;;;4176252;28;20025;-63
2021/11/30 00:28:25;;;;;;;15.98;5.40;;;5.30;99.90;;;;;;4170176;28;20047;-63
2021/11/30 00:30:26;;;;;;;17.35;5.63;;;5.30;99.90;;;;;;4171683;28;20498;-63
2021/11/30 00:32:27;;;;;;;12.07;5.63;;;5.40;99.90;;;;;;4175070;28;20033;-63
2021/11/30 00:34:27;;;;;;;11.32;5.00;;;5.40;99.90;;;;;;4174795;28;20029;-63
2021/11/30 00:36:28;;;;;;;16.00;6.07;;;5.40;99.90;;;;;;4172523;28;20387;-63
2021/11/30 00:38:30;;;;;;;13.20;5.53;;;5.30;99.90;;;;;;4168940;28;20158;-63
2021/11/30 00:40:33;;;;;;;14.05;6.32;;;5.40;99.90;;;;;;4169568;28;20047;-63
2021/11/30 00:42:35;;;;;;;10.95;6.13;;;5.30;99.90;;;;;;4169653;28;20377;-63
2021/11/30 00:44:38;;;;;;;13.13;6.43;;;5.40;99.90;;;;;;4157337;28;20120;-63
2021/11/30 00:46:40;;;;;;;19.95;6.57;;;5.30;99.90;;;;;;4170493;28;20360;-63
2021/11/30 00:48:41;;;;;;;15.30;6.40;;;5.30;99.90;;;;;;4174075;28;20041;-63
2021/11/30 00:50:42;;;;;;;16.35;6.28;;;5.30;99.90;;;;;;4172169;28;20041;-63
2021/11/30 00:52:44;;;;;;;14.88;6.15;;;5.30;99.90;;;;;;4169220;28;20040;-63
2021/11/30 00:54:44;;;;;;;17.88;6.95;;;5.20;99.90;;;;;;4170677;28;20122;-63
2021/11/30 00:56:47;;;;;;;14.57;6.50;;;5.20;99.90;;;;;;4171846;28;20038;-63
2021/11/30 00:58:48;;;;;;;15.48;7.18;;;5.20;99.90;;;;;;4176089;28;20035;-63
2021/11/30 01:00:49;;;;;;;14.30;6.57;;;5.10;99.90;;;;;;4176292;28;20034;-63
2021/11/30 01:02:50;;;;;;;17.20;6.82;;;5.20;99.90;;;;;;4168860;28;20037;-63
2021/11/30 01:04:51;;;;;;;16.73;8.18;;;5.10;99.90;;;;;;4168921;28;20470;-63
2021/11/30 01:06:51;;;;;;;16.13;7.00;;;5.10;99.90;;;;;;4170495;28;20041;-62
2021/11/30 01:08:52;;;;;;;12.77;6.90;;;5.10;99.90;;;;;;4172100;28;20068;-63
2021/11/30 01:10:53;;;;;;;17.65;6.90;;;5.00;99.90;;;;;;4170251;28;20090;-63
2021/11/30 01:12:54;;;;;;;15.23;7.15;;;5.00;99.90;;;;;;4169534;28;20028;-63
2021/11/30 01:14:55;;;;;;;13.18;6.95;;;5.10;99.90;;;;;;4171199;28;20475;-63
2021/11/30 01:16:55;;;;;;;10.40;6.88;;;5.10;99.90;;;;;;4172957;28;20048;-63
2021/11/30 01:18:56;;;;;;;15.40;7.70;;;5.10;99.90;;;;;;4173306;28;20025;-63
2021/11/30 01:20:57;;;;;;;11.00;6.53;;;5.20;99.90;;;;;;4173266;28;20362;-63
2021/11/30 01:22:57;;;;;;;11.40;6.70;;;5.10;99.90;;;;;;4171895;28;20473;-63
2021/11/30 01:24:58;;;;;;;14.52;7.25;;;5.20;99.90;;;;;;4170728;28;20029;-63
2021/11/30 01:26:59;;;;;;;13.07;7.72;;;5.10;99.90;;;;;;4168552;28;20040;-63
2021/11/30 01:28:59;;;;;;;13.98;6.95;;;5.10;99.90;;;;;;4168670;28;20030;-63
2021/11/30 01:31:01;;;;;;;16.50;7.22;;;5.10;99.90;;;;;;4167672;28;20036;-62
2021/11/30 01:33:04;;;;;;;17.50;7.13;;;5.10;99.90;;;;;;4171105;28;20498;-64
2021/11/30 01:35:05;;;;;;;21.85;8.52;;;5.00;99.90;;;;;;4173754;28;20034;-63
2021/11/30 01:37:05;;;;;;;17.42;8.10;;;5.00;99.90;;;;;;4175623;28;20032;-63
2021/11/30 01:39:06;;;;;;;13.27;6.90;;;5.00;99.90;;;;;;4168808;28;20448;-63
2021/11/30 01:41:08;;;;;;;15.27;7.78;;;5.00;99.90;;;;;;4168072;28;20036;-63
2021/11/30 01:43:12;;;;;;;14.57;7.55;;;5.00;99.90;;;;;;4169434;28;20033;-63
2021/11/30 01:51:33;;;;;;;14.07;7.15;;;4.90;99.90;;;;;;4167965;28;20060;-63
2021/11/30 01:53:34;;;;;;;15.55;7.18;;;5.00;99.90;;;;;;4169103;28;20086;-63
2021/11/30 01:55:34;;;;;;;22.90;7.13;;;5.00;99.90;;;;;;4170691;28;20036;-63
2021/11/30 01:57:37;;;;;;;13.05;6.47;;;5.10;99.90;;;;;;4177341;28;20361;-63
2021/11/30 01:59:39;;;;;;;15.63;6.32;;;5.00;99.90;;;;;;4182764;28;20373;-63
2021/11/30 02:01:39;;;;;;;11.20;5.45;;;5.00;99.90;;;;;;4182101;28;20120;-63
2021/11/30 02:03:41;;;;;;;13.73;5.65;;;5.10;99.90;;;;;;4176807;28;20032;-63
2021/11/30 02:05:42;;;;;;;12.07;5.28;;;5.10;99.90;;;;;;4169963;28;20033;-63
2021/11/30 02:07:43;;;;;;;13.85;6.20;;;5.10;99.90;;;;;;4166228;28;20055;-63
2021/11/30 02:09:45;;;;;;;11.80;5.55;;;5.00;99.90;;;;;;4165944;28;20120;-63
2021/11/30 02:11:46;;;;;;;10.07;4.75;;;5.00;99.90;;;;;;4165647;28;20471;-63
2021/11/30 02:13:47;;;;;;;9.90;5.20;;;5.00;99.90;;;;;;4165714;28;20033;-63
2021/11/30 02:15:50;;;;;;;10.20;4.90;;;4.90;99.90;;;;;;4165939;28;20034;-63
2021/11/30 02:17:52;;;;;;;12.23;4.45;;;4.80;99.90;;;;;;4166343;28;20057;-63
2021/11/30 02:19:57;;;;;;;11.95;4.70;;;4.70;99.90;;;;;;4166511;28;20045;-63
2021/11/30 02:21:58;;;;;;;10.70;4.32;;;4.70;99.90;;;;;;4166034;28;20061;-62
2021/11/30 02:23:59;;;;;;;9.82;3.80;;;4.70;99.90;;;;;;4166791;28;20025;-62
2021/11/30 02:26:05;;;;;;;13.47;4.83;;;4.60;99.90;;;;;;4165977;28;20060;-62
2021/11/30 02:28:06;;;;;;;8.15;3.92;;;4.60;99.90;;;;;;4166542;28;20069;-62
2021/11/30 02:30:07;;;;;;;9.65;3.75;;;4.60;99.90;;;;;;4166356;28;20095;-63
2021/11/30 02:32:08;;;;;;;9.25;3.42;;;4.60;99.90;;;;;;4166405;28;20061;-62
2021/11/30 02:34:09;;;;;;;8.18;3.83;;;4.50;99.90;;;;;;4166703;28;20033;-62
2021/11/30 02:38:45;;;;;;;10.82;3.70;;;4.50;99.90;;;;;;4166634;28;20028;-62
2021/11/30 02:40:45;;;;;;;10.52;4.03;;;4.50;99.90;;;;;;4165535;28;20037;-62
2021/11/30 02:42:46;;;;;;;12.32;3.45;;;4.40;99.90;;;;;;4166583;28;20041;-62
2021/11/30 02:44:47;;;;;;;10.77;3.90;;;4.30;99.90;;;;;;4166460;28;20103;-62
2021/11/30 02:46:59;;;;;;;10.43;3.78;;;4.40;99.90;;;;;;4160432;28;20049;-62
2021/11/30 02:49:00;;;;;;;;;;;4.40;99.90;;;;;;4152176;28;20038;-62
2021/11/30 02:51:05;;;;;;;7.25;3.38;;;4.30;99.90;;;;;;4149048;28;20263;-62
2021/11/30 02:53:07;;;;;;;9.05;3.83;;;4.30;99.90;;;;;;4149104;28;20036;-62
2021/11/30 02:55:07;;;;;;;5.90;3.33;;;4.40;99.90;;;;;;4148520;28;20038;-63
2021/11/30 02:57:10;;;;;;;8.07;3.65;;;4.30;99.90;;;;;;4148586;28;20465;-62
2021/11/30 02:59:11;;;;;;;6.25;3.15;;;4.20;99.90;;;;;;4148667;28;20041;-62
2021/11/30 03:01:12;;;;;;;9.00;4.07;;;4.20;99.90;;;;;;4148661;28;20388;-62
2021/11/30 03:03:14;;;;;;;7.95;3.88;;;4.30;99.90;;;;;;4148752;28;20484;-62
2021/11/30 03:05:15;;;;;;;9.07;4.00;;;4.30;99.90;;;;;;4147696;28;20473;-62
2021/11/30 03:07:21;;;;;;;10.00;4.60;;;4.30;99.90;;;;;;4148945;28;20029;-62
2021/11/30 03:09:22;;;;;;;9.60;4.22;;;4.20;99.90;;;;;;4148773;28;20492;-62
2021/11/30 03:11:23;;;;;;;8.82;4.32;;;4.30;99.90;;;;;;4147787;28;20040;-62
2021/11/30 03:13:24;;;;;;;9.15;4.20;;;4.30;99.90;;;;;;4148657;28;20034;-62
2021/11/30 03:15:25;;;;;;;10.75;4.70;;;4.20;99.90;;;;;;4147763;28;20038;-62
2021/11/30 03:17:26;;;;;;;8.80;4.18;;;4.20;99.90;;;;;;4148929;28;20057;-62
2021/11/30 03:19:28;;;;;;;9.20;4.03;;;4.20;99.90;;;;;;4148771;28;20037;-62
2021/11/30 03:21:29;;;;;;;11.60;4.60;;;4.30;99.90;;;;;;4148023;28;20092;-62
2021/11/30 03:23:30;;;;;;;9.80;4.40;;;4.30;99.90;;;;;;4148945;28;20034;-62
2021/11/30 03:25:31;;;;;;;8.90;4.57;;;4.30;99.90;;;;;;4147746;28;20032;-62
2021/11/30 03:27:31;;;;;;;11.27;4.50;;;4.30;99.90;;;;;;4148405;28;20124;-62
2021/11/30 03:29:32;;;;;;;9.13;4.20;;;4.30;99.90;;;;;;4148592;28;20044;-62
2021/11/30 03:31:46;;;;;;;9.35;4.13;;;4.40;99.90;;;;;;4148071;28;20025;-63
2021/11/30 03:33:59;;;;;;;8.02;3.95;;;4.40;99.90;;;;;;4148576;28;20045;-62
2021/11/30 03:35:59;;;;;;;6.25;4.00;;;4.40;99.90;;;;;;4147868;28;20038;-62
2021/11/30 03:38:00;;;;;;;9.55;4.13;;;4.40;99.90;;;;;;4148388;28;20080;-62
2021/11/30 03:40:01;;;;;;;10.32;4.43;;;4.40;99.90;;;;;;4148265;28;20413;-62
2021/11/30 03:42:02;;;;;;;7.35;4.13;;;4.40;99.90;;;;;;4147608;28;20045;-62
2021/11/30 03:44:05;;;;;;;6.82;4.07;;;4.40;99.90;;;;;;4148496;28;20034;-62
2021/11/30 03:46:06;;;;;;;6.70;3.60;;;4.40;99.90;;;;;;4147676;28;20076;-63
2021/11/30 03:48:06;;;;;;;7.05;3.80;;;4.50;99.90;;;;;;4159924;28;20033;-62
2021/11/30 03:50:07;;;;;;;8.07;3.95;;;4.50;99.90;;;;;;4164690;28;20030;-64
2021/11/30 03:52:08;;;;;;;7.93;4.03;;;4.50;99.90;;;;;;4165009;28;20032;-62
2021/11/30 03:54:10;;;;;;;10.10;3.90;;;4.50;99.90;;;;;;4165445;28;20376;-62
2021/11/30 03:56:11;;;;;;;5.68;3.47;;;4.50;99.90;;;;;;4164637;28;20038;-62
2021/11/30 03:58:11;;;;;;;10.48;4.47;;;4.60;99.90;;;;;;4164952;28;20534;-62
2021/11/30 04:00:13;;;;;;;9.55;4.05;;;4.60;99.90;;;;;;4164532;28;20083;-62
2021/11/30 04:02:15;;;;;;;6.10;3.58;;;4.60;99.90;;;;;;4174821;28;20040;-62
2021/11/30 04:04:36;;;;;;;9.55;4.40;;;4.70;99.90;;;;;;4169596;28;20388;-63
2021/11/30 04:06:37;;;;;;;6.45;3.60;;;4.70;99.90;;;;;;4164476;28;20108;-62
2021/11/30 04:08:39;;;;;;;7.32;4.22;;;4.70;99.90;;;;;;4170466;28;20044;-62
2021/11/30 04:10:39;;;;;;;7.30;4.07;;;4.70;99.90;;;;;;4175359;28;20029;-62
2021/11/30 04:12:40;;;;;;;5.78;3.42;;;4.70;99.90;;;;;;4181644;28;20456;-62
2021/11/30 04:14:41;;;;;;;5.75;3.50;;;4.70;99.90;;;;;;4175546;28;20108;-62
2021/11/30 04:16:42;;;;;;;5.18;3.63;;;4.80;99.90;;;;;;4168820;28;20081;-62
2021/11/30 04:18:42;;;;;;;5.72;3.03;;;4.80;99.90;;;;;;4165021;28;20114;-62
2021/11/30 04:20:43;;;;;;;7.85;3.35;;;4.80;99.90;;;;;;4164391;28;20460;-62
2021/11/30 04:22:44;;;;;;;4.85;3.53;;;4.80;99.90;;;;;;4164887;28;20029;-62
2021/11/30 04:24:44;;;;;;;8.75;3.78;;;4.80;99.90;;;;;;4165115;28;20117;-62
2021/11/30 04:26:45;;;;;;;7.82;3.30;;;4.80;99.90;;;;;;4164065;28;20096;-62
2021/11/30 04:28:46;;;;;;;13.07;3.70;;;4.90;99.90;;;;;;4164924;28;20116;-62
2021/11/30 04:30:46;;;;;;;8.02;3.53;;;4.90;99.90;;;;;;4164252;28;20037;-63
2021/11/30 04:32:47;;;;;;;4.35;3.42;;;4.90;99.90;;;;;;4164774;28;20458;-62
2021/11/30 04:34:48;;;;;;;4.18;3.00;;;5.00;99.90;;;;;;4164766;28;20035;-62
2021/11/30 04:36:48;;;;;;;7.78;4.05;;;5.00;99.90;;;;;;4164700;28;20040;-62
2021/11/30 04:38:49;;;;;;;4.97;2.80;;;5.00;99.90;;;;;;4164606;28;20036;-63
2021/11/30 04:40:50;;;;;;;5.93;3.72;;;5.10;99.90;;;;;;4164132;28;20049;-62
2021/11/30 04:42:50;;;;;;;9.48;3.55;;;5.00;99.90;;;;;;4164106;28;20036;-62
2021/11/30 04:45:00;;;;;;;5.32;3.40;;;5.10;99.90;;;;;;4162172;28;20041;-62
2021/11/30 04:47:06;;;;;;;5.30;3.40;;;5.10;99.90;;;;;;4164159;28;20060;-62
2021/11/30 04:49:54;;;;;;;7.00;3.65;;;5.10;99.90;;;;;;4167705;28;20061;-62
2021/11/30 04:51:34;;;;;;;5.60;3.28;;;5.10;99.90;;;;;;4169690;28;20080;-62
2021/11/30 04:53:35;;;;;;;6.28;4.00;;;5.10;99.90;;;;;;4164815;28;20037;-62
2021/11/30 04:55:36;;;;;;;6.90;3.72;;;5.20;99.90;;;;;;4159680;28;20045;-63
2021/11/30 04:57:36;;;;;;;5.30;3.30;;;5.20;99.90;;;;;;4171389;28;20041;-62
2021/11/30 04:59:37;;;;;;;6.90;3.15;;;5.20;99.90;;;;;;4164374;28;20068;-62
2021/11/30 05:01:38;;;;;;;4.50;3.13;;;5.20;99.90;;;;;;4162981;28;20116;-62
2021/11/30 05:03:39;;;;;;;6.30;2.80;;;5.30;99.90;;;;;;4164113;28;20472;-62
2021/11/30 05:05:41;;;;;;;6.32;3.47;;;5.30;99.90;;;;;;4164163;28;20030;-62
2021/11/30 05:07:42;;;;;;;5.78;3.33;;;5.30;99.90;;;;;;4164552;28;20100;-62
2021/11/30 05:09:43;;;;;;;7.05;3.45;;;5.40;99.90;;;;;;4164535;28;20045;-62
2021/11/30 05:11:44;;;;;;;5.22;3.53;;;5.40;99.90;;;;;;4164169;28;20037;-63
2021/11/30 05:13:45;;;;;;;4.43;3.28;;;5.40;99.90;;;;;;4164534;28;20113;-62
2021/11/30 05:15:45;;;;;;;9.82;3.60;;;5.40;99.90;;;;;;4163725;28;20029;-63
2021/11/30 05:17:46;;;;;;;5.15;3.20;;;5.40;99.90;;;;;;4164589;28;20534;-62
2021/11/30 05:19:47;;;;;;;5.05;3.00;;;5.50;99.90;;;;;;4164194;28;20044;-62
2021/11/30 05:21:47;;;;;;;5.32;3.25;;;5.50;99.90;;;;;;4163810;28;20042;-62
2021/11/30 05:23:48;;;;;;;3.90;2.88;;;5.50;99.90;;;;;;4164537;28;20025;-62
2021/11/30 05:25:49;;;;;;;4.97;3.42;;;5.60;99.90;;;;;;4163700;28;20488;-63
2021/11/30 05:27:50;;;;;;;4.22;2.85;;;5.60;99.90;;;;;;4165200;28;20029;-63
2021/11/30 05:29:51;;;;;;;5.93;3.90;;;5.70;99.90;;;;;;4167833;28;20037;-62
2021/11/30 05:31:52;;;;;;;5.22;3.17;;;5.70;99.90;;;;;;4166925;28;20454;-63
2021/11/30 05:33:53;;;;;;;5.65;3.35;;;5.70;99.90;;;;;;4167847;28;20033;-62
2021/11/30 05:35:54;;;;;;;4.65;3.35;;;5.60;99.90;;;;;;4166736;28;20127;-62
2021/11/30 05:37:55;;;;;;;4.28;3.20;;;5.70;99.90;;;;;;4167497;28;20053;-62
2021/11/30 05:39:55;;;;;;;5.40;3.47;;;5.70;99.90;;;;;;4167351;28;20084;-62
2021/11/30 05:41:56;;;;;;;5.10;3.40;;;5.80;99.90;;;;;;4166558;28;20041;-62
2021/11/30 05:43:57;;;;;;;4.93;2.97;;;5.80;99.90;;;;;;4167462;28;20033;-62
2021/11/30 05:45:57;;;;;;;5.45;3.70;;;5.80;99.90;;;;;;4166396;28;20037;-62
2021/11/30 05:47:58;;;;;;;4.20;3.17;;;5.80;99.90;;;;;;4167351;28;20055;-62
2021/11/30 05:49:59;;;;;;;4.32;3.63;;;5.80;99.90;;;;;;4167069;28;20036;-62
2021/11/30 05:52:00;;;;;;;5.50;3.83;;;5.90;99.90;;;;;;4166578;28;20383;-62
2021/11/30 05:54:02;;;;;;;5.57;3.80;;;5.90;99.90;;;;;;4167362;28;20499;-62
2021/11/30 05:56:05;;;;;;;7.07;4.20;;;5.90;99.90;;;;;;4166590;28;20045;-62
2021/11/30 05:58:06;;;;;;;5.50;3.88;;;6.00;99.90;;;;;;4166961;28;20029;-62
2021/11/30 06:00:11;;;;;;;4.22;3.28;;;6.00;99.90;;;;;;4166749;28;20124;-64
2021/11/30 06:02:12;;;;;;;4.72;3.00;;;6.00;99.90;;;;;;4167111;28;20510;-62
2021/11/30 06:04:13;;;;;;;3.85;3.45;;;6.00;99.90;;;;;;4166856;28;20486;-62
2021/11/30 06:06:14;;;;;;;4.28;3.63;;;6.10;99.90;;;;;;4166516;28;20091;-62
2021/11/30 06:08:14;;;;;;;6.38;3.58;;;6.10;99.90;;;;;;4166815;28;20041;-62
2021/11/30 06:10:15;;;;;;;4.68;3.67;;;6.10;99.90;;;;;;4166042;28;20025;-63
2021/11/30 06:12:16;;;;;;;7.20;4.10;;;6.20;99.90;;;;;;4166814;28;20394;-62
2021/11/30 06:14:16;;;;;;;5.05;3.33;;;6.20;99.90;;;;;;4166204;28;20030;-62
2021/11/30 06:16:18;;;;;;;5.63;4.20;;;6.30;99.90;;;;;;4165792;28;20026;-62
2021/11/30 06:18:19;;;;;;;3.63;3.30;;;6.30;99.90;;;;;;4166789;28;20033;-62
2021/11/30 06:20:21;;;;;;;4.93;3.55;;;6.40;99.90;;;;;;4165810;28;20112;-62
2021/11/30 06:22:21;;;;;;;4.05;3.63;;;6.40;99.90;;;;;;4167152;28;20044;-62
2021/11/30 06:24:22;;;;;;;4.50;3.17;;;6.40;99.90;;;;;;4166522;28;20468;-62
2021/11/30 06:26:23;;;;;;;3.53;3.22;;;6.40;99.90;;;;;;4166121;28;20029;-62
2021/11/30 06:28:23;;;;;;;3.70;3.30;;;6.50;99.90;;;;;;4166509;28;20031;-62
2021/11/30 06:30:24;;;;;;;5.53;3.55;;;6.50;99.90;;;;;;4165956;28;20033;-62
2021/11/30 06:32:25;;;;;;;3.10;2.80;;;6.50;99.90;;;;;;4166392;28;20491;-62
2021/11/30 06:34:26;;;;;;;4.03;3.38;;;6.60;99.90;;;;;;4166581;28;20064;-62
2021/11/30 06:36:26;;;;;;;6.15;3.33;;;6.60;99.90;;;;;;4165678;28;20388;-62
2021/11/30 06:38:27;;;;;;;4.10;3.20;;;6.60;99.90;;;;;;4166433;28;20029;-62
2021/11/30 06:40:28;;;;;;;4.95;3.40;;;6.70;99.90;;;;;;4165266;28;20030;-63
2021/11/30 06:42:28;;;;;;;4.07;3.30;;;6.70;99.90;;;;;;4166222;28;20048;-63
2021/11/30 06:44:31;;;;;;;3.38;3.08;;;6.70;99.90;;;;;;4166434;28;20508;-63
2021/11/30 06:46:32;;;;;;;3.53;3.20;;;6.70;99.90;;;;;;4165627;28;20033;-63
2021/11/30 06:48:33;;;;;;;4.22;3.83;;;6.80;99.90;;;;;;4166395;28;20041;-63
2021/11/30 06:50:34;;;;;;;3.45;3.13;;;6.80;99.90;;;;;;4165789;28;20041;-63
2021/11/30 06:52:37;;;;;;;4.78;3.90;;;6.80;99.90;;;;;;4166372;28;20036;-63
2021/11/30 06:54:43;;;;;;;4.30;3.90;;;6.80;99.90;;;;;;4166279;28;20036;-63
2021/11/30 06:56:44;;;;;;;4.43;4.03;;;6.80;99.90;;;;;;4169802;28;20059;-63
2021/11/30 06:58:44;;;;;;;4.18;3.78;;;6.80;99.90;;;;;;4171006;28;20102;-63
2021/11/30 07:00:48;;;;;;;4.93;4.15;;;6.80;99.90;;;;;;4170456;28;20446;-63
2021/11/30 07:02:51;;;;;;;4.45;3.83;;;6.90;99.90;;;;;;4171197;28;20059;-63
2021/11/30 07:04:54;;;;;;;4.65;3.63;;;6.80;99.90;;;;;;4171357;28;20155;-63
2021/11/30 07:07:04;;;;;;;4.03;3.63;;;6.90;99.90;;;;;;4173576;28;20030;-63
2021/11/30 07:09:17;;;;;;;5.07;3.40;;;6.90;99.90;;;;;;4175259;28;20399;-63
2021/11/30 07:11:22;;;;;;;4.30;3.65;;;6.90;99.90;;;;;;4169647;28;20033;-63
2021/11/30 07:13:25;;;;;;;4.40;3.60;;;7.00;99.90;;;;;;4175905;28;20091;-63
2021/11/30 07:15:26;;;;;;;3.35;3.05;;;7.00;99.90;;;;;;4175958;28;20091;-63
2021/11/30 07:17:26;;;;;;;3.75;3.28;;;7.00;99.90;;;;;;4171629;28;20050;-63
2021/11/30 07:19:30;;;;;;;3.70;3.40;;;7.00;99.90;;;;;;4170817;28;20041;-63
2021/11/30 07:21:32;;;;;;;3.47;3.17;;;7.00;99.90;;;;;;4177082;28;20037;-63
2021/11/30 07:23:32;;;;;;;3.30;3.00;;;7.00;99.90;;;;;;4173571;28;20035;-63
2021/11/30 07:25:34;;;;;;;3.63;3.30;;;7.10;99.90;;;;;;4175571;28;20107;-63
2021/11/30 07:27:34;;;;;;;5.57;3.50;;;7.10;99.90;;;;;;4171101;28;20033;-63
2021/11/30 07:29:35;;;;;;;3.30;3.00;;;7.10;99.90;;;;;;4171151;28;20043;-63
2021/11/30 07:31:36;;;;;;;3.97;3.28;;;7.10;99.90;;;;;;4176794;28;20041;-64
2021/11/30 07:33:43;;;;;;;4.03;3.47;;;7.10;99.90;;;;;;4170956;28;20460;-64
2021/11/30 07:35:44;;;;;;;3.80;3.42;;;7.10;99.90;;;;;;4158011;28;20038;-64
2021/11/30 07:37:44;;;;;;;3.60;2.80;;;7.10;99.90;;;;;;4172791;28;20040;-64
2021/11/30 07:39:46;;;;;;;3.17;2.72;;;7.20;99.90;;;;;;4175753;28;20364;-64
2021/11/30 07:41:47;;;;;;;4.33;2.93;;;7.20;99.90;;;;;;4173237;28;20073;-64
2021/11/30 07:43:48;;;;;;;3.00;2.67;;;7.20;99.90;;;;;;4170805;28;20040;-64
2021/11/30 07:45:49;;;;;;;3.35;3.05;;;7.20;99.90;;;;;;4171362;28;20033;-64
2021/11/30 07:47:49;;;;;;;3.08;2.78;;;7.20;99.90;;;;;;4169193;28;20456;-64
2021/11/30 07:49:50;;;;;;;3.33;2.72;;;7.20;99.90;;;;;;4170568;28;20033;-64
2021/11/30 07:51:51;;;;;;;3.20;2.90;;;7.30;99.90;;;;;;4177634;28;20033;-64
2021/11/30 07:53:52;;;;;;;2.70;2.50;;;7.30;99.90;;;;;;4170864;28;20036;-64
2021/11/30 07:55:54;;;;;;;3.80;3.30;;;7.30;99.90;;;;;;4172672;28;20527;-64
2021/11/30 07:57:55;;;;;;;2.35;2.15;;;7.30;99.90;;;;;;4173456;28;20037;-64
2021/11/30 07:59:56;;;;;;;3.17;2.80;;;7.30;99.90;;;;;;4170532;28;20044;-64
2021/11/30 08:01:56;;;;;;;3.10;2.80;;;7.40;99.90;;;;;;4171255;28;20476;-64
2021/11/30 08:03:57;;;;;;;2.55;2.30;;;7.30;99.90;;;;;;4169063;28;20483;-64
2021/11/30 08:05:57;;;;;;;3.30;2.90;;;7.30;99.90;;;;;;4169674;28;20061;-64
2021/11/30 08:07:58;;;;;;;2.90;2.65;;;7.40;99.90;;;;;;4156091;28;20044;-64
2021/11/30 08:09:59;;;;;;;2.92;2.67;;;7.40;99.90;;;;;;4174302;28;20112;-64
2021/11/30 08:12:00;;;;;;;4.75;2.40;;;7.40;99.90;;;;;;4170009;28;20075;-64
2021/11/30 08:14:01;;;;;;;2.72;2.53;;;7.40;99.90;;;;;;4170550;28;20033;-64
2021/11/30 08:16:02;;;;;;;3.10;2.83;;;7.40;99.90;;;;;;4173506;28;20021;-64
2021/11/30 08:18:04;;;;;;;2.78;2.47;;;7.40;99.90;;;;;;4172363;28;20102;-64
2021/11/30 08:20:06;;;;;;;;;;;7.40;99.90;;;;;;4173261;28;20444;-64
2021/11/30 08:22:08;;;;;;;4.47;2.60;;;7.40;99.90;;;;;;4174267;28;19909;-64
2021/11/30 08:24:09;;;;;;;2.67;2.47;;;7.40;99.90;;;;;;4174841;28;20403;-64
2021/11/30 08:26:12;;;;;;;2.03;1.90;;;7.40;99.90;;;;;;4167711;28;20033;-64
2021/11/30 08:28:13;;;;;;;2.10;1.90;;;7.40;99.90;;;;;;4173122;28;20061;-64
2021/11/30 08:30:13;;;;;;;2.45;2.17;;;7.40;99.90;;;;;;4167608;28;20468;-64
2021/11/30 08:32:14;;;;;;;2.92;2.35;;;7.50;99.90;;;;;;4170058;28;20125;-63
2021/11/30 08:34:15;;;;;;;2.40;1.95;;;7.50;99.90;;;;;;4169289;28;20569;-63
2021/11/30 08:36:15;;;;;;;2.28;1.92;;;7.50;99.90;;;;;;4172299;28;20414;-63
2021/11/30 08:38:16;;;;;;;2.50;2.30;;;7.50;99.90;;;;;;4170048;28;20091;-63
2021/11/30 08:40:17;;;;;;;2.00;1.80;;;7.50;99.90;;;;;;4173259;28;20030;-63
2021/11/30 08:42:19;;;;;;;1.92;1.80;;;7.50;99.90;;;;;;4170076;28;20029;-63
2021/11/30 08:44:20;;;;;;;1.75;1.65;;;7.50;99.90;;;;;;4169953;28;20033;-63
2021/11/30 08:46:21;;;;;;;1.80;1.70;;;7.50;99.90;;;;;;4161427;28;20025;-63
2021/11/30 08:48:24;;;;;;;2.35;1.90;;;7.60;99.90;;;;;;4169436;28;20242;-63
2021/11/30 08:50:25;;;;;;;2.05;1.60;;;7.60;99.90;;;;;;4169213;28;20036;-64
2021/11/30 08:52:28;;;;;;;1.50;1.40;;;7.60;99.90;;;;;;4167501;28;20034;-64
2021/11/30 08:54:29;;;;;;;2.92;1.70;;;7.60;99.90;;;;;;4168206;28;20029;-64
2021/11/30 08:56:29;;;;;;;1.63;1.40;;;7.60;99.90;;;;;;4167063;28;20029;-64
2021/11/30 08:58:30;;;;;;;3.40;1.73;;;7.60;99.90;;;;;;4168137;28;20057;-64
2021/11/30 09:00:32;;;;;;;2.08;1.80;;;7.70;99.90;;;;;;4180432;28;20112;-64
2021/11/30 09:02:33;;;;;;;2.15;1.70;;;7.70;99.90;;;;;;4177849;28;20029;-64
2021/11/30 09:04:34;;;;;;;1.50;1.40;;;7.70;99.90;;;;;;4178645;28;20025;-64
2021/11/30 09:06:35;;;;;;;2.85;1.50;;;7.70;99.90;;;;;;4176158;28;20048;-64
2021/11/30 09:08:36;;;;;;;1.60;1.50;;;7.70;99.90;;;;;;4173481;28;20391;-64
2021/11/30 09:10:37;;;;;;;1.48;1.38;;;7.70;99.90;;;;;;4172868;28;20057;-64
2021/11/30 09:12:37;;;;;;;1.73;1.63;;;7.80;99.90;;;;;;4178539;28;20056;-64
2021/11/30 09:14:38;;;;;;;1.48;1.38;;;7.80;99.90;;;;;;4173020;28;20037;-64
2021/11/30 09:16:39;;;;;;;2.65;1.55;;;7.80;99.90;;;;;;4171059;28;20416;-64
2021/11/30 09:18:39;;;;;;;2.13;1.77;;;7.80;99.90;;;;;;4172577;28;20072;-64
2021/11/30 09:20:40;;;;;;;1.48;1.38;;;7.90;99.90;;;;;;4177627;28;20038;-64
2021/11/30 09:22:41;;;;;;;1.60;1.50;;;7.90;99.90;;;;;;4173124;28;20034;-64
2021/11/30 09:24:42;;;;;;;1.40;1.30;;;7.90;99.90;;;;;;4175344;28;20033;-64
2021/11/30 09:26:43;;;;;;;1.40;1.30;;;7.90;99.90;;;;;;4177750;28;20152;-64
2021/11/30 09:28:44;;;;;;;1.70;1.60;;;7.90;99.90;;;;;;4174699;28;20049;-64
2021/11/30 09:30:45;;;;;;;1.58;1.40;;;7.90;99.90;;;;;;4178693;28;20456;-64
2021/11/30 09:32:46;;;;;;;1.65;1.33;;;8.00;99.90;;;;;;4177773;28;20048;-64
2021/11/30 09:34:47;;;;;;;2.95;1.65;;;8.00;99.90;;;;;;4169518;28;20021;-64
2021/11/30 09:36:48;;;;;;;2.75;1.88;;;8.00;99.90;;;;;;4178681;28;20029;-64
2021/11/30 09:38:49;;;;;;;1.52;1.30;;;8.00;99.90;;;;;;4169519;28;20068;-64
2021/11/30 09:40:54;;;;;;;1.80;1.50;;;8.00;99.90;;;;;;4176080;28;20029;-64
2021/11/30 09:42:55;;;;;;;1.90;1.73;;;8.00;99.90;;;;;;4169735;28;20103;-64
2021/11/30 09:44:56;;;;;;;1.98;1.73;;;8.10;99.90;;;;;;4173232;28;20029;-63
2021/11/30 09:47:01;;;;;;;1.90;1.60;;;8.10;99.90;;;;;;4167344;28;20029;-64
2021/11/30 09:49:02;;;;;;;1.40;1.30;;;8.10;99.90;;;;;;4168603;28;20053;-65
2021/11/30 09:51:05;;;;;;;2.63;1.60;;;8.20;99.90;;;;;;4170862;28;20025;-64
2021/11/30 09:53:06;;;;;;;;;;;8.10;99.90;;;;;;4172370;28;20049;-64
2021/11/30 09:55:08;;;;;;;1.95;1.77;;;8.20;99.90;;;;;;4168093;28;19905;-64
2021/11/30 09:57:09;;;;;;;1.90;1.63;;;8.20;99.90;;;;;;4173733;28;20108;-64
2021/11/30 09:59:10;;;;;;;2.13;1.75;;;8.20;99.90;;;;;;4171718;28;20068;-64
2021/11/30 10:01:12;;;;;;;2.38;1.60;;;8.20;99.90;;;;;;4169426;28;20504;-64
2021/11/30 10:03:13;;;;;;;1.85;1.70;;;8.20;99.90;;;;;;4172346;28;20041;-64
2021/11/30 10:05:14;;;;;;;3.10;1.67;;;8.30;99.90;;;;;;4163639;28;20036;-64
2021/11/30 10:07:15;;;;;;;2.90;1.50;;;8.30;99.90;;;;;;4172384;28;20029;-64
2021/11/30 10:09:24;;;;;;;1.80;1.63;;;8.30;99.90;;;;;;4172268;28;20037;-64
2021/11/30 10:11:34;;;;;;;1.58;1.48;;;8.30;99.90;;;;;;4146808;28;20026;-64
2021/11/30 10:13:35;;;;;;;1.83;1.63;;;8.30;99.90;;;;;;4169453;28;20025;-64
2021/11/30 10:15:45;;;;;;;1.70;1.60;;;8.30;99.90;;;;;;4160121;28;20017;-64
2021/11/30 10:17:46;;;;;;;1.30;1.20;;;8.40;99.90;;;;;;4171646;28;20459;-64
2021/11/30 10:19:56;;;;;;;1.35;1.25;;;8.40;99.90;;;;;;4171631;28;20041;-64
2021/11/30 10:21:57;;;;;;;2.22;1.60;;;8.40;99.90;;;;;;4171444;28;20069;-64
2021/11/30 10:24:06;;;;;;;2.30;1.67;;;8.40;99.90;;;;;;4167383;28;20828;-63
2021/11/30 10:26:06;;;;;;;2.38;1.65;;;8.40;99.90;;;;;;4166450;28;20100;-64
2021/11/30 10:28:15;;;;;;;1.52;1.30;;;8.50;99.90;;;;;;4167150;28;20395;-64
2021/11/30 10:30:19;;;;;;;2.17;1.50;;;8.50;99.90;;;;;;4169895;28;20041;-64
2021/11/30 10:32:33;;;;;;;1.60;1.50;;;8.50;99.90;;;;;;4167141;28;20117;-64
2021/11/30 10:34:34;;;;;;;1.38;1.20;;;8.50;99.90;;;;;;4172969;28;20036;-64
2021/11/30 10:36:49;;;;;;;1.88;1.67;;;8.60;99.90;;;;;;4163072;28;20037;-65
2021/11/30 10:38:50;;;;;;;1.48;1.38;;;8.60;99.90;;;;;;4164299;28;20032;-64
2021/11/30 10:40:50;;;;;;;1.70;1.50;;;8.60;99.90;;;;;;4165341;28;20514;-64
2021/11/30 10:42:53;;;;;;;1.77;1.63;;;8.60;99.90;;;;;;4165718;28;20442;-64
2021/11/30 10:44:57;;;;;;;2.45;1.98;;;8.60;99.90;;;;;;4165456;28;20033;-64
2021/11/30 10:47:12;;;;;;;2.03;1.70;;;8.60;99.90;;;;;;4169239;28;20043;-64
2021/11/30 10:49:12;;;;;;;1.50;1.38;;;8.60;99.90;;;;;;4164797;28;20043;-64
2021/11/30 10:51:13;;;;;;;2.13;1.55;;;8.70;99.90;;;;;;4171312;28;20126;-64